sensor_id;sensor_type;location;lat;lon;timestamp;P1;durP1;ratioP1;P2;durP2;ratioP2
25980;SDS011;13772;52.996;9.124;2022-09-27T09:42:37;2.53;;;0.50;;
25980;SDS011;13772;52.996;9.124;2022-09-27T09:45:04;2.00;;;0.50;;
25980;SDS011;13772;52.996;9.124;2022-09-27T09:47:43;2.40;;;0.50;;
25980;SDS011;13772;52.996;9.124;2022-09-27T09:50:17;3.58;;;0.52;;
25980;SDS011;13772;52.996;9.124;2022-09-27T09:52:46;1.90;;;0.50;;
25980;SDS011;13772;52.996;9.124;2022-09-27T09:55:23;3.15;;;0.40;;
25980;SDS011;13772;52.996;9.124;2022-09-27T10:00:27;2.70;;;0.60;;
25980;SDS011;13772;52.996;9.124;2022-09-27T10:02:54;2.65;;;0.70;;
25980;SDS011;13772;52.996;9.124;2022-09-27T10:05:21;2.78;;;0.88;;
25980;SDS011;13772;52.996;9.124;2022-09-27T10:07:53;4.07;;;1.60;;
25980;SDS011;13772;52.996;9.124;2022-09-27T10:10:19;2.25;;;1.33;;
25980;SDS011;13772;52.996;9.124;2022-09-27T10:13:18;3.00;;;1.00;;
25980;SDS011;13772;52.996;9.124;2022-09-27T10:15:48;3.33;;;1.80;;
25980;SDS011;13772;52.996;9.124;2022-09-27T10:18:16;3.33;;;1.73;;
25980;SDS011;13772;52.996;9.124;2022-09-27T10:20:42;2.63;;;1.60;;
25980;SDS011;13772;52.996;9.124;2022-09-27T10:23:12;3.53;;;1.55;;
25980;SDS011;13772;52.996;9.124;2022-09-27T10:25:57;4.88;;;1.88;;
25980;SDS011;13772;52.996;9.124;2022-09-27T10:28:49;5.93;;;2.13;;
25980;SDS011;13772;52.996;9.124;2022-09-27T10:31:20;3.13;;;1.80;;
25980;SDS011;13772;52.996;9.124;2022-09-27T10:34:02;3.60;;;1.63;;
25980;SDS011;13772;52.996;9.124;2022-09-27T10:36:34;3.40;;;1.67;;
25980;SDS011;13772;52.996;9.124;2022-09-27T10:39:00;4.43;;;1.77;;
25980;SDS011;13772;52.996;9.124;2022-09-27T10:41:33;6.18;;;1.98;;
25980;SDS011;13772;52.996;9.124;2022-09-27T10:46:49;2.70;;;1.75;;
25980;SDS011;13772;52.996;9.124;2022-09-27T10:49:39;5.05;;;3.40;;
25980;SDS011;13772;52.996;9.124;2022-09-27T10:52:17;3.97;;;1.60;;
25980;SDS011;13772;52.996;9.124;2022-09-27T10:54:54;3.40;;;1.98;;
25980;SDS011;13772;52.996;9.124;2022-09-27T10:57:20;4.78;;;3.03;;
25980;SDS011;13772;52.996;9.124;2022-09-27T11:03:21;4.60;;;1.85;;
25980;SDS011;13772;52.996;9.124;2022-09-27T11:05:39;5.32;;;1.88;;
25980;SDS011;13772;52.996;9.124;2022-09-27T11:10:59;4.13;;;1.98;;
25980;SDS011;13772;52.996;9.124;2022-09-27T11:13:25;3.58;;;1.70;;
25980;SDS011;13772;52.996;9.124;2022-09-27T11:24:16;2.60;;;1.20;;
25980;SDS011;13772;52.996;9.124;2022-09-27T11:32:44;3.60;;;1.30;;
25980;SDS011;13772;52.996;9.124;2022-09-27T11:35:20;4.53;;;1.50;;
25980;SDS011;13772;52.996;9.124;2022-09-27T11:40:43;4.65;;;1.98;;
25980;SDS011;13772;52.996;9.124;2022-09-27T11:43:26;3.22;;;1.52;;
25980;SDS011;13772;52.996;9.124;2022-09-27T11:46:02;2.78;;;1.55;;
25980;SDS011;13772;52.996;9.124;2022-09-27T11:48:36;5.95;;;1.70;;
25980;SDS011;13772;52.996;9.124;2022-09-27T11:51:14;6.40;;;1.98;;
25980;SDS011;13772;52.996;9.124;2022-09-27T11:56:29;7.57;;;3.65;;
25980;SDS011;13772;52.996;9.124;2022-09-27T12:06:38;6.60;;;3.95;;
25980;SDS011;13772;52.996;9.124;2022-09-27T12:09:10;5.53;;;2.28;;
25980;SDS011;13772;52.996;9.124;2022-09-27T12:11:42;6.50;;;2.90;;
25980;SDS011;13772;52.996;9.124;2022-09-27T12:16:41;5.65;;;2.45;;
25980;SDS011;13772;52.996;9.124;2022-09-27T12:19:13;5.95;;;2.25;;
25980;SDS011;13772;52.996;9.124;2022-09-27T12:21:58;4.70;;;2.65;;
25980;SDS011;13772;52.996;9.124;2022-09-27T12:24:25;7.05;;;2.55;;
25980;SDS011;13772;52.996;9.124;2022-09-27T12:27:09;6.40;;;2.88;;
25980;SDS011;13772;52.996;9.124;2022-09-27T12:29:39;3.75;;;1.60;;
25980;SDS011;13772;52.996;9.124;2022-09-27T12:34:55;3.05;;;1.70;;
25980;SDS011;13772;52.996;9.124;2022-09-27T12:37:24;4.75;;;1.70;;
25980;SDS011;13772;52.996;9.124;2022-09-27T12:40:05;3.75;;;1.52;;
25980;SDS011;13772;52.996;9.124;2022-09-27T12:42:41;3.78;;;1.88;;
25980;SDS011;13772;52.996;9.124;2022-09-27T12:46:05;6.20;;;1.98;;
25980;SDS011;13772;52.996;9.124;2022-09-27T12:48:07;4.60;;;1.70;;
25980;SDS011;13772;52.996;9.124;2022-09-27T12:50:42;4.57;;;1.60;;
25980;SDS011;13772;52.996;9.124;2022-09-27T12:53:11;3.78;;;1.98;;
25980;SDS011;13772;52.996;9.124;2022-09-27T13:00:53;3.35;;;1.40;;
25980;SDS011;13772;52.996;9.124;2022-09-27T13:11:12;5.40;;;1.50;;
25980;SDS011;13772;52.996;9.124;2022-09-27T13:13:41;4.10;;;1.50;;
25980;SDS011;13772;52.996;9.124;2022-09-27T13:16:08;4.50;;;1.42;;
25980;SDS011;13772;52.996;9.124;2022-09-27T13:18:49;4.30;;;1.50;;
25980;SDS011;13772;52.996;9.124;2022-09-27T13:26:59;5.68;;;1.60;;
25980;SDS011;13772;52.996;9.124;2022-09-27T13:29:26;6.75;;;1.50;;
25980;SDS011;13772;52.996;9.124;2022-09-27T13:34:59;2.92;;;1.27;;
25980;SDS011;13772;52.996;9.124;2022-09-27T13:45:39;5.60;;;1.60;;
25980;SDS011;13772;52.996;9.124;2022-09-27T13:48:08;4.00;;;1.55;;
25980;SDS011;13772;52.996;9.124;2022-09-27T14:00:40;4.97;;;1.55;;
25980;SDS011;13772;52.996;9.124;2022-09-27T14:05:40;4.37;;;1.00;;
25980;SDS011;13772;52.996;9.124;2022-09-27T14:08:06;3.20;;;0.70;;
25980;SDS011;13772;52.996;9.124;2022-09-27T14:10:38;1.00;;;0.60;;
25980;SDS011;13772;52.996;9.124;2022-09-27T14:13:07;2.35;;;0.30;;
25980;SDS011;13772;52.996;9.124;2022-09-27T14:15:41;1.17;;;0.45;;
25980;SDS011;13772;52.996;9.124;2022-09-27T14:18:09;1.85;;;0.35;;
25980;SDS011;13772;52.996;9.124;2022-09-27T14:20:39;0.93;;;0.30;;
25980;SDS011;13772;52.996;9.124;2022-09-27T14:23:22;1.23;;;0.35;;
25980;SDS011;13772;52.996;9.124;2022-09-27T14:25:49;3.22;;;0.70;;
25980;SDS011;13772;52.996;9.124;2022-09-27T14:28:28;2.37;;;1.20;;
25980;SDS011;13772;52.996;9.124;2022-09-27T14:33:48;3.67;;;1.10;;
25980;SDS011;13772;52.996;9.124;2022-09-27T14:36:32;5.90;;;1.73;;
25980;SDS011;13772;52.996;9.124;2022-09-27T14:39:21;9.20;;;3.47;;
25980;SDS011;13772;52.996;9.124;2022-09-27T14:41:49;6.03;;;2.33;;
25980;SDS011;13772;52.996;9.124;2022-09-27T14:44:16;4.55;;;1.77;;
25980;SDS011;13772;52.996;9.124;2022-09-27T14:46:42;2.90;;;0.93;;
25980;SDS011;13772;52.996;9.124;2022-09-27T14:49:26;3.33;;;0.82;;
25980;SDS011;13772;52.996;9.124;2022-09-27T14:51:55;3.78;;;0.73;;
25980;SDS011;13772;52.996;9.124;2022-09-27T14:54:24;2.08;;;1.33;;
25980;SDS011;13772;52.996;9.124;2022-09-27T14:56:51;5.03;;;0.80;;
25980;SDS011;13772;52.996;9.124;2022-09-27T14:59:39;2.47;;;0.70;;
25980;SDS011;13772;52.996;9.124;2022-09-27T15:02:10;1.63;;;0.40;;
25980;SDS011;13772;52.996;9.124;2022-09-27T15:04:41;2.22;;;0.52;;
25980;SDS011;13772;52.996;9.124;2022-09-27T15:07:07;0.70;;;0.45;;
25980;SDS011;13772;52.996;9.124;2022-09-27T15:09:33;1.55;;;0.73;;
25980;SDS011;13772;52.996;9.124;2022-09-27T15:11:58;0.75;;;0.40;;
25980;SDS011;13772;52.996;9.124;2022-09-27T15:14:29;1.05;;;0.55;;
25980;SDS011;13772;52.996;9.124;2022-09-27T15:16:56;0.80;;;0.40;;
25980;SDS011;13772;52.996;9.124;2022-09-27T15:19:28;4.47;;;0.40;;
25980;SDS011;13772;52.996;9.124;2022-09-27T15:21:54;1.52;;;0.40;;
25980;SDS011;13772;52.996;9.124;2022-09-27T15:24:42;0.73;;;0.35;;
25980;SDS011;13772;52.996;9.124;2022-09-27T15:27:12;1.40;;;0.40;;
25980;SDS011;13772;52.996;9.124;2022-09-27T15:29:38;3.40;;;0.57;;
25980;SDS011;13772;52.996;9.124;2022-09-27T15:32:04;0.50;;;0.40;;
25980;SDS011;13772;52.996;9.124;2022-09-27T15:34:30;1.50;;;0.47;;
25980;SDS011;13772;52.996;9.124;2022-09-27T15:36:58;1.00;;;0.32;;
25980;SDS011;13772;52.996;9.124;2022-09-27T15:39:37;2.33;;;0.40;;
25980;SDS011;13772;52.996;9.124;2022-09-27T15:44:36;1.80;;;0.50;;
25980;SDS011;13772;52.996;9.124;2022-09-27T15:47:02;2.72;;;0.50;;
25980;SDS011;13772;52.996;9.124;2022-09-27T15:51:55;0.93;;;0.30;;
25980;SDS011;13772;52.996;9.124;2022-09-27T15:54:21;1.17;;;0.50;;
25980;SDS011;13772;52.996;9.124;2022-09-27T15:56:47;2.60;;;0.60;;
25980;SDS011;13772;52.996;9.124;2022-09-27T15:59:15;1.02;;;0.60;;
25980;SDS011;13772;52.996;9.124;2022-09-27T16:01:42;3.85;;;0.75;;
25980;SDS011;13772;52.996;9.124;2022-09-27T16:04:08;0.93;;;0.50;;
25980;SDS011;13772;52.996;9.124;2022-09-27T16:06:33;1.13;;;0.50;;
25980;SDS011;13772;52.996;9.124;2022-09-27T16:08:58;1.95;;;0.68;;
25980;SDS011;13772;52.996;9.124;2022-09-27T16:11:23;2.70;;;0.77;;
25980;SDS011;13772;52.996;9.124;2022-09-27T16:13:49;0.88;;;0.50;;
25980;SDS011;13772;52.996;9.124;2022-09-27T16:16:17;1.48;;;0.60;;
25980;SDS011;13772;52.996;9.124;2022-09-27T16:18:43;5.47;;;0.80;;
25980;SDS011;13772;52.996;9.124;2022-09-27T16:21:09;3.15;;;0.75;;
25980;SDS011;13772;52.996;9.124;2022-09-27T16:23:34;1.25;;;0.68;;
25980;SDS011;13772;52.996;9.124;2022-09-27T16:25:59;1.98;;;0.60;;
25980;SDS011;13772;52.996;9.124;2022-09-27T16:28:25;1.45;;;0.60;;
25980;SDS011;13772;52.996;9.124;2022-09-27T16:30:50;1.40;;;0.63;;
25980;SDS011;13772;52.996;9.124;2022-09-27T16:33:15;2.10;;;0.70;;
25980;SDS011;13772;52.996;9.124;2022-09-27T16:35:40;1.75;;;0.70;;
25980;SDS011;13772;52.996;9.124;2022-09-27T16:38:05;4.60;;;1.77;;
25980;SDS011;13772;52.996;9.124;2022-09-27T16:40:31;3.22;;;1.52;;
25980;SDS011;13772;52.996;9.124;2022-09-27T16:42:56;2.50;;;1.10;;
25980;SDS011;13772;52.996;9.124;2022-09-27T16:45:21;21.85;;;8.85;;
25980;SDS011;13772;52.996;9.124;2022-09-27T16:47:47;7.78;;;2.83;;
25980;SDS011;13772;52.996;9.124;2022-09-27T16:50:12;2.88;;;1.15;;
25980;SDS011;13772;52.996;9.124;2022-09-27T16:52:56;1.25;;;0.85;;
25980;SDS011;13772;52.996;9.124;2022-09-27T16:55:23;3.13;;;1.00;;
25980;SDS011;13772;52.996;9.124;2022-09-27T16:57:49;3.53;;;1.20;;
25980;SDS011;13772;52.996;9.124;2022-09-27T17:00:15;4.35;;;1.40;;
25980;SDS011;13772;52.996;9.124;2022-09-27T17:02:40;2.80;;;1.48;;
25980;SDS011;13772;52.996;9.124;2022-09-27T17:05:07;3.85;;;2.33;;
25980;SDS011;13772;52.996;9.124;2022-09-27T17:07:32;8.30;;;2.20;;
25980;SDS011;13772;52.996;9.124;2022-09-27T17:09:58;5.63;;;2.22;;
25980;SDS011;13772;52.996;9.124;2022-09-27T17:12:23;4.25;;;1.85;;
25980;SDS011;13772;52.996;9.124;2022-09-27T17:14:48;3.33;;;1.40;;
25980;SDS011;13772;52.996;9.124;2022-09-27T17:17:13;1.85;;;0.88;;
25980;SDS011;13772;52.996;9.124;2022-09-27T17:19:39;2.78;;;1.05;;
25980;SDS011;13772;52.996;9.124;2022-09-27T17:22:05;1.95;;;0.90;;
25980;SDS011;13772;52.996;9.124;2022-09-27T17:24:31;2.15;;;0.75;;
25980;SDS011;13772;52.996;9.124;2022-09-27T17:26:56;0.98;;;0.60;;
25980;SDS011;13772;52.996;9.124;2022-09-27T17:29:21;1.65;;;0.63;;
25980;SDS011;13772;52.996;9.124;2022-09-27T17:31:46;1.98;;;0.75;;
25980;SDS011;13772;52.996;9.124;2022-09-27T17:34:12;1.38;;;0.70;;
25980;SDS011;13772;52.996;9.124;2022-09-27T17:36:38;1.00;;;0.63;;
25980;SDS011;13772;52.996;9.124;2022-09-27T17:39:05;2.55;;;0.52;;
25980;SDS011;13772;52.996;9.124;2022-09-27T17:41:31;1.27;;;0.65;;
25980;SDS011;13772;52.996;9.124;2022-09-27T17:43:59;2.55;;;0.60;;
25980;SDS011;13772;52.996;9.124;2022-09-27T17:46:25;1.80;;;0.70;;
25980;SDS011;13772;52.996;9.124;2022-09-27T17:48:50;2.42;;;0.70;;
25980;SDS011;13772;52.996;9.124;2022-09-27T17:51:36;1.23;;;0.70;;
25980;SDS011;13772;52.996;9.124;2022-09-27T17:54:01;3.05;;;1.00;;
25980;SDS011;13772;52.996;9.124;2022-09-27T17:56:27;3.75;;;1.50;;
25980;SDS011;13772;52.996;9.124;2022-09-27T17:58:53;4.70;;;2.40;;
25980;SDS011;13772;52.996;9.124;2022-09-27T18:01:19;5.20;;;2.85;;
25980;SDS011;13772;52.996;9.124;2022-09-27T18:03:44;7.13;;;2.97;;
25980;SDS011;13772;52.996;9.124;2022-09-27T18:06:10;5.38;;;2.35;;
25980;SDS011;13772;52.996;9.124;2022-09-27T18:08:36;3.03;;;1.50;;
25980;SDS011;13772;52.996;9.124;2022-09-27T18:11:05;2.15;;;0.90;;
25980;SDS011;13772;52.996;9.124;2022-09-27T18:13:31;1.63;;;0.70;;
25980;SDS011;13772;52.996;9.124;2022-09-27T18:16:01;2.45;;;0.63;;
25980;SDS011;13772;52.996;9.124;2022-09-27T18:18:26;1.75;;;0.77;;
25980;SDS011;13772;52.996;9.124;2022-09-27T18:20:52;3.85;;;1.48;;
25980;SDS011;13772;52.996;9.124;2022-09-27T18:23:17;5.93;;;2.97;;
25980;SDS011;13772;52.996;9.124;2022-09-27T18:25:42;2.03;;;1.20;;
25980;SDS011;13772;52.996;9.124;2022-09-27T18:28:08;2.00;;;1.13;;
25980;SDS011;13772;52.996;9.124;2022-09-27T18:30:34;4.25;;;2.05;;
25980;SDS011;13772;52.996;9.124;2022-09-27T18:32:59;7.50;;;2.17;;
25980;SDS011;13772;52.996;9.124;2022-09-27T18:35:24;5.68;;;2.72;;
25980;SDS011;13772;52.996;9.124;2022-09-27T18:37:52;7.75;;;2.92;;
25980;SDS011;13772;52.996;9.124;2022-09-27T18:40:17;4.95;;;2.67;;
25980;SDS011;13772;52.996;9.124;2022-09-27T18:42:43;6.15;;;2.70;;
25980;SDS011;13772;52.996;9.124;2022-09-27T18:45:08;5.03;;;2.90;;
25980;SDS011;13772;52.996;9.124;2022-09-27T18:47:33;5.60;;;2.85;;
25980;SDS011;13772;52.996;9.124;2022-09-27T18:49:58;4.72;;;2.30;;
25980;SDS011;13772;52.996;9.124;2022-09-27T18:52:23;4.95;;;1.90;;
25980;SDS011;13772;52.996;9.124;2022-09-27T18:54:49;2.28;;;1.30;;
25980;SDS011;13772;52.996;9.124;2022-09-27T18:57:14;3.05;;;1.10;;
25980;SDS011;13772;52.996;9.124;2022-09-27T18:59:40;2.40;;;1.13;;
25980;SDS011;13772;52.996;9.124;2022-09-27T19:02:05;5.07;;;1.23;;
25980;SDS011;13772;52.996;9.124;2022-09-27T19:04:31;2.10;;;1.08;;
25980;SDS011;13772;52.996;9.124;2022-09-27T19:06:56;2.65;;;1.30;;
25980;SDS011;13772;52.996;9.124;2022-09-27T19:09:21;2.70;;;1.52;;
25980;SDS011;13772;52.996;9.124;2022-09-27T19:11:47;2.53;;;1.35;;
25980;SDS011;13772;52.996;9.124;2022-09-27T19:14:16;3.42;;;1.80;;
25980;SDS011;13772;52.996;9.124;2022-09-27T19:16:42;3.33;;;1.45;;
25980;SDS011;13772;52.996;9.124;2022-09-27T19:19:08;2.80;;;1.75;;
25980;SDS011;13772;52.996;9.124;2022-09-27T19:21:34;4.82;;;1.90;;
25980;SDS011;13772;52.996;9.124;2022-09-27T19:23:59;2.35;;;1.67;;
25980;SDS011;13772;52.996;9.124;2022-09-27T19:26:25;4.38;;;2.08;;
25980;SDS011;13772;52.996;9.124;2022-09-27T19:28:50;3.97;;;1.80;;
25980;SDS011;13772;52.996;9.124;2022-09-27T19:31:17;2.22;;;1.50;;
25980;SDS011;13772;52.996;9.124;2022-09-27T19:33:43;3.70;;;1.90;;
25980;SDS011;13772;52.996;9.124;2022-09-27T19:36:09;4.45;;;2.30;;
25980;SDS011;13772;52.996;9.124;2022-09-27T19:38:35;4.70;;;2.47;;
25980;SDS011;13772;52.996;9.124;2022-09-27T19:41:01;6.32;;;2.60;;
25980;SDS011;13772;52.996;9.124;2022-09-27T19:43:26;5.90;;;3.35;;
25980;SDS011;13772;52.996;9.124;2022-09-27T19:45:51;8.60;;;4.38;;
25980;SDS011;13772;52.996;9.124;2022-09-27T19:48:17;8.85;;;4.18;;
25980;SDS011;13772;52.996;9.124;2022-09-27T19:50:42;5.20;;;2.67;;
25980;SDS011;13772;52.996;9.124;2022-09-27T19:53:07;4.38;;;2.08;;
25980;SDS011;13772;52.996;9.124;2022-09-27T19:55:32;3.67;;;2.47;;
25980;SDS011;13772;52.996;9.124;2022-09-27T19:57:58;3.75;;;1.98;;
25980;SDS011;13772;52.996;9.124;2022-09-27T20:00:23;5.05;;;1.75;;
25980;SDS011;13772;52.996;9.124;2022-09-27T20:02:49;3.63;;;1.88;;
25980;SDS011;13772;52.996;9.124;2022-09-27T20:05:14;3.30;;;1.70;;
25980;SDS011;13772;52.996;9.124;2022-09-27T20:07:39;2.67;;;1.70;;
25980;SDS011;13772;52.996;9.124;2022-09-27T20:10:05;4.72;;;2.08;;
25980;SDS011;13772;52.996;9.124;2022-09-27T20:12:30;5.63;;;2.22;;
25980;SDS011;13772;52.996;9.124;2022-09-27T20:14:55;4.75;;;1.60;;
25980;SDS011;13772;52.996;9.124;2022-09-27T20:17:20;3.88;;;1.30;;
25980;SDS011;13772;52.996;9.124;2022-09-27T20:19:46;2.10;;;1.55;;
25980;SDS011;13772;52.996;9.124;2022-09-27T20:22:11;9.70;;;1.70;;
25980;SDS011;13772;52.996;9.124;2022-09-27T20:24:36;4.72;;;1.60;;
25980;SDS011;13772;52.996;9.124;2022-09-27T20:27:01;8.13;;;1.60;;
25980;SDS011;13772;52.996;9.124;2022-09-27T20:29:26;3.05;;;1.52;;
25980;SDS011;13772;52.996;9.124;2022-09-27T20:31:51;2.58;;;1.48;;
25980;SDS011;13772;52.996;9.124;2022-09-27T20:34:17;2.65;;;1.38;;
25980;SDS011;13772;52.996;9.124;2022-09-27T20:36:42;2.60;;;1.48;;
25980;SDS011;13772;52.996;9.124;2022-09-27T20:39:11;3.20;;;1.30;;
25980;SDS011;13772;52.996;9.124;2022-09-27T20:41:40;4.80;;;1.40;;
25980;SDS011;13772;52.996;9.124;2022-09-27T20:44:07;3.90;;;1.55;;
25980;SDS011;13772;52.996;9.124;2022-09-27T20:46:33;4.05;;;1.30;;
25980;SDS011;13772;52.996;9.124;2022-09-27T20:48:59;4.90;;;1.45;;
25980;SDS011;13772;52.996;9.124;2022-09-27T20:51:27;2.92;;;1.50;;
25980;SDS011;13772;52.996;9.124;2022-09-27T20:53:52;4.70;;;1.52;;
25980;SDS011;13772;52.996;9.124;2022-09-27T20:56:24;5.00;;;2.08;;
25980;SDS011;13772;52.996;9.124;2022-09-27T20:58:51;2.92;;;1.85;;
25980;SDS011;13772;52.996;9.124;2022-09-27T21:01:17;6.05;;;1.80;;
25980;SDS011;13772;52.996;9.124;2022-09-27T21:03:43;2.97;;;1.77;;
25980;SDS011;13772;52.996;9.124;2022-09-27T21:06:08;3.85;;;2.08;;
25980;SDS011;13772;52.996;9.124;2022-09-27T21:08:34;7.28;;;1.70;;
25980;SDS011;13772;52.996;9.124;2022-09-27T21:11:17;5.10;;;2.03;;
25980;SDS011;13772;52.996;9.124;2022-09-27T21:13:44;4.90;;;2.00;;
25980;SDS011;13772;52.996;9.124;2022-09-27T21:16:10;4.68;;;2.47;;
25980;SDS011;13772;52.996;9.124;2022-09-27T21:18:36;4.28;;;2.47;;
25980;SDS011;13772;52.996;9.124;2022-09-27T21:21:02;2.85;;;2.00;;
25980;SDS011;13772;52.996;9.124;2022-09-27T21:23:28;4.82;;;2.00;;
25980;SDS011;13772;52.996;9.124;2022-09-27T21:26:00;4.97;;;2.10;;
25980;SDS011;13772;52.996;9.124;2022-09-27T21:28:29;6.28;;;2.65;;
25980;SDS011;13772;52.996;9.124;2022-09-27T21:30:54;6.25;;;2.35;;
25980;SDS011;13772;52.996;9.124;2022-09-27T21:33:19;3.75;;;2.20;;
25980;SDS011;13772;52.996;9.124;2022-09-27T21:35:48;4.68;;;2.25;;
25980;SDS011;13772;52.996;9.124;2022-09-27T21:38:13;5.13;;;2.78;;
25980;SDS011;13772;52.996;9.124;2022-09-27T21:40:38;4.18;;;2.20;;
25980;SDS011;13772;52.996;9.124;2022-09-27T21:43:03;7.25;;;2.25;;
25980;SDS011;13772;52.996;9.124;2022-09-27T21:45:30;6.40;;;2.30;;
25980;SDS011;13772;52.996;9.124;2022-09-27T21:47:55;4.70;;;2.30;;
25980;SDS011;13772;52.996;9.124;2022-09-27T21:50:20;3.83;;;2.20;;
25980;SDS011;13772;52.996;9.124;2022-09-27T21:52:46;4.50;;;2.10;;
25980;SDS011;13772;52.996;9.124;2022-09-27T21:55:11;3.85;;;2.05;;
25980;SDS011;13772;52.996;9.124;2022-09-27T21:57:36;3.70;;;2.10;;
25980;SDS011;13772;52.996;9.124;2022-09-27T22:00:02;4.55;;;2.40;;
